Buoy 16555

sailwx.info

Track history (hours):
 
Tides and Currents Weather Stations Pressure Air Temp Water Temp Dewpoint Dewpoint Depression Visibility Wind Speed Wind Dir Waves Ship Positions

Drifting buoy 16555

Last reported at 2017-Aug-22 10:00 UTC. Time now 2017-Aug-22 12:52 UTC.
Position S 25°04' E 097°09'.

Barometer 1025.2 mb
Water temperature 19.2 ° C

Date/timePositionNaut miles runAvg speedWind from/ knotsBaromVisibWave heightAir tempDewpointWater temp
2017-Aug-22 10:00S 25°04' E 097°09'2 0.2 1025.2 19.2
2017-Aug-22 02:00S 25°05' E 097°10'1 1.1 1026.0 19.1
2017-Aug-22 01:00S 25°05' E 097°08'1 0.8 1025.4 19.1
2017-Aug-22 00:00S 25°05' E 097°09'1 0.3 1024.6 19.1
2017-Aug-21 22:00S 25°05' E 097°08'1 0.5 1023.6 19.1
2017-Aug-21 21:00S 25°05' E 097°08'1 0.4 1023.6 19.0
2017-Aug-21 19:00S 25°05' E 097°08'1 0.1 1024.6 19.0
2017-Aug-21 12:00S 25°06' E 097°08'0 0.0 1024.6 19.1
2017-Aug-21 11:00S 25°06' E 097°08'1 0.3 1024.3 19.1
2017-Aug-21 09:00S 25°07' E 097°08'2 0.3 1023.8 19.2
2017-Aug-21 02:00S 25°08' E 097°09'0 0.0 1025.6 19.1
2017-Aug-20 23:00S 25°08' E 097°09'1 0.6 1024.4 19.1
2017-Aug-20 22:00S 25°08' E 097°09'0 0.0 1024.4 19.1
2017-Aug-20 21:00S 25°08' E 097°09'1 0.5 1024.4 19.2
2017-Aug-20 20:00S 25°08' E 097°08'0 0.0 1025.2 19.2
2017-Aug-20 15:00S 25°08' E 097°08'1 0.5 1027.0 19.2
2017-Aug-20 14:00S 25°08' E 097°09'0 0.0 1026.9 19.2
2017-Aug-20 13:00S 25°08' E 097°09'0 0.0 1026.4 19.3
2017-Aug-20 11:00S 25°08' E 097°09'1 0.8 1025.9 19.3
2017-Aug-20 10:00S 25°07' E 097°10'1 0.5 1025.8 19.3
2017-Aug-20 08:00S 25°07' E 097°08'1 0.1 1026.0 19.3
2017-Aug-20 02:00S 25°08' E 097°08'1 0.5 1029.0 19.1
2017-Aug-20 01:00S 25°08' E 097°08'0 0.0 1028.6 19.1
2017-Aug-20 00:00S 25°08' E 097°08'0 0.0 1028.3 19.1
2017-Aug-19 23:00S 25°08' E 097°08'3 0.9 1027.9 19.2
2017-Aug-19 19:00S 25°05' E 097°07'0 0.0 1029.3 19.2
2017-Aug-19 18:00S 25°05' E 097°07'1 0.2 1029.9 19.2
2017-Aug-19 15:00S 25°05' E 097°06'1 0.8 1030.6 19.3
2017-Aug-19 14:00S 25°05' E 097°05'1 1.3 1030.2 19.3
2017-Aug-19 13:00S 25°04' E 097°05'1 0.6 1030.0 19.3
2017-Aug-19 12:00S 25°05' E 097°05'1 0.3 1029.5 19.3
2017-Aug-19 09:00S 25°04' E 097°04'3 1.4 1028.2 19.4
2017-Aug-19 07:00S 25°02' E 097°02'2 0.3 1028.5 19.5
2017-Aug-19 00:00S 25°02' E 096°59'2 1.6 1029.2 19.1
2017-Aug-18 23:00S 25°02' E 096°58'1 0.3 1029.0 19.1
2017-Aug-18 19:00S 25°02' E 096°56'4 1.4 1028.5 18.9
2017-Aug-18 16:00S 25°01' E 096°52'0 0.0 1029.0 18.9
2017-Aug-18 15:00S 25°01' E 096°52'0 0.0 1029.2 18.9
2017-Aug-18 14:00S 25°01' E 096°52'0 0.0 1028.9 18.9
2017-Aug-18 12:00S 25°01' E 096°52'1 1.1 1027.8 19.0
2017-Aug-18 11:00S 25°01' E 096°51'0 0.0 1027.0 19.0
2017-Aug-18 10:00S 25°01' E 096°51'1 0.8 1026.8 19.0
2017-Aug-18 09:00S 25°01' E 096°50'0 0.0 1026.5 19.0
2017-Aug-18 08:00S 25°01' E 096°50'4 0.6 1026.3 19.0
2017-Aug-18 02:00S 25°02' E 096°46'0 0.0 1027.6 19.0
2017-Aug-18 01:00S 25°02' E 096°46'1 0.2 1027.2 19.0
2017-Aug-17 22:00S 25°02' E 096°46'4 2.2 1025.2 19.0
2017-Aug-17 20:00S 25°04' E 096°41'0 0.0 1025.3 19.0
2017-Aug-17 18:00S 25°04' E 096°41'0 0.0 1025.6 19.0
2017-Aug-17 15:00S 25°04' E 096°41'2 0.9 1025.8 19.1
2017-Aug-17 13:00S 25°05' E 096°40'0 0.0 1025.5 19.1
2017-Aug-17 11:00S 25°05' E 096°40'2 1.6 1024.7 19.1
2017-Aug-17 10:00S 25°06' E 096°38'1 0.4 1024.4 19.1
2017-Aug-17 08:00S 25°07' E 096°38'3 3.2 1024.4 19.1
2017-Aug-17 07:00S 25°09' E 096°35'1 0.2 1024.6 19.1
2017-Aug-17 02:00S 25°10' E 096°35'1 0.4 1026.5 19.1
2017-Aug-17 00:00S 25°11' E 096°35'4 1.8 1025.5 19.1
2017-Aug-16 22:00S 25°14' E 096°35'0 0.0 1024.6 19.0
2017-Aug-16 21:00S 25°14' E 096°35'3 0.6 1024.8 19.0
2017-Aug-16 16:00S 25°17' E 096°34'0 0.0 1025.9 19.0
2017-Aug-16 15:00S 25°17' E 096°34'0 0.0 1026.1 19.0
2017-Aug-16 14:00S 25°17' E 096°34'2 1.9 1026.3 19.0
2017-Aug-16 13:00S 25°19' E 096°34'1 0.6 1026.3 19.0
2017-Aug-16 12:00S 25°20' E 096°34'1 0.3 1026.0 19.0
2017-Aug-16 10:00S 25°20' E 096°33'1 0.4 1025.8 19.1
2017-Aug-16 08:00S 25°20' E 096°32'2 2.4 1025.9 19.1
2017-Aug-16 07:00S 25°22' E 096°31'2 0.3 1026.1 19.1
2017-Aug-16 01:00S 25°24' E 096°31'1 0.5 1027.6 19.0
2017-Aug-16 00:00S 25°24' E 096°31'3 0.8 1026.9 19.0
2017-Aug-15 20:00S 25°27' E 096°31'3 0.8 1026.3 18.9
2017-Aug-15 16:00S 25°30' E 096°31'1 1.3 1027.9 18.9
2017-Aug-15 15:00S 25°31' E 096°31'2 2.4 1028.3 18.9
2017-Aug-15 14:00S 25°34' E 096°31'0 0.0 1028.2 18.9
2017-Aug-15 13:00S 25°34' E 096°31'1 0.8 1028.0 18.9
2017-Aug-15 12:00S 25°34' E 096°30'1 1.2 1027.7 18.9
2017-Aug-15 11:00S 25°35' E 096°30'0 0.0 1027.4 19.0
2017-Aug-15 10:00S 25°35' E 096°30'1 1.3 1027.0 19.0
2017-Aug-15 09:00S 25°37' E 096°29'0 0.0 1026.6 19.0
2017-Aug-15 08:00S 25°37' E 096°29'5 0.8 1026.2 19.0
2017-Aug-15 01:00S 25°42' E 096°29'1 0.4 1027.7 18.9
2017-Aug-14 22:00S 25°43' E 096°29'1 0.4 1025.7 18.9
2017-Aug-14 20:00S 25°44' E 096°30'5 0.9 1026.0 19.0
2017-Aug-14 15:00S 25°48' E 096°32'0 0.0 1025.5 19.0
2017-Aug-14 14:00S 25°48' E 096°32'4 1.0 1025.3 19.1
2017-Aug-14 10:00S 25°52' E 096°34'5 1.6 1023.1 19.1
2017-Aug-14 07:00S 25°56' E 096°32'0 0.0 1022.1 19.1
2017-Aug-14 04:00S 25°56' E 096°32'0 0.0 1022.8 19.1
2017-Aug-14 03:00S 25°56' E 096°32'1 0.3 1022.5 19.0
2017-Aug-14 01:00S 25°57' E 096°32'0 0.0 1021.1 18.9
2017-Aug-14 00:00S 25°57' E 096°32'1 0.2 1020.0 18.9
2017-Aug-13 21:00S 25°57' E 096°33'1 0.5 1017.9 18.9
2017-Aug-13 20:00S 25°57' E 096°34'4 0.6 1017.6 18.9
2017-Aug-13 14:00S 25°59' E 096°37'1 1.3 1015.9 19.0
2017-Aug-13 13:00S 26°01' E 096°37'0 0.0 1015.2 19.0
2017-Aug-13 12:00S 26°01' E 096°37'1 1.3 1014.5 19.0
2017-Aug-13 11:00S 26°02' E 096°38'1 0.7 1013.5 19.1
2017-Aug-13 09:00S 26°03' E 096°37'5 0.7 1012.4 19.1
2017-Aug-13 02:00S 26°08' E 096°37'1 0.3 1013.4 18.9
2017-Aug-13 00:00S 26°08' E 096°37'1 0.6 1012.2 18.9
2017-Aug-12 23:00S 26°08' E 096°37'1 1.2 1011.9 19.0
2017-Aug-12 22:00S 26°09' E 096°37'1 1.1 1011.7 19.1
2017-Aug-12 21:00S 26°09' E 096°38'0 0.0 1011.6 19.1
2017-Aug-12 20:00S 26°09' E 096°38'2 0.4 1012.0 19.1
2017-Aug-12 15:00S 26°07' E 096°39'1 0.5 1013.3 19.0
2017-Aug-12 14:00S 26°07' E 096°40'1 0.7 1013.4 19.0
2017-Aug-12 12:00S 26°08' E 096°40'1 1.2 1012.8 19.1
2017-Aug-12 11:00S 26°09' E 096°41'1 1.2 1012.6 19.2
2017-Aug-12 10:00S 26°10' E 096°43'   1012.7 19.2
Track history (hours):
 
Tides and Currents Weather Stations Pressure Air Temp Water Temp Dewpoint Dewpoint Depression Visibility Wind Speed Wind Dir Waves Ship Positions

Drifting buoy 16555

Last reported at 2017-Aug-22 10:00 UTC. Time now 2017-Aug-22 12:52 UTC.
Position S 25°04' E 097°09'.

Barometer 1025.2 mb
Water temperature 19.2 ° C

Date/timePositionNaut miles runAvg speedWind from/ knotsBaromVisibWave heightAir tempDewpointWater temp
2017-Aug-22 10:00S 25°04' E 097°09'2 0.2 1025.2 19.2
2017-Aug-22 02:00S 25°05' E 097°10'1 1.1 1026.0 19.1
2017-Aug-22 01:00S 25°05' E 097°08'1 0.8 1025.4 19.1
2017-Aug-22 00:00S 25°05' E 097°09'1 0.3 1024.6 19.1
2017-Aug-21 22:00S 25°05' E 097°08'1 0.5 1023.6 19.1
2017-Aug-21 21:00S 25°05' E 097°08'1 0.4 1023.6 19.0
2017-Aug-21 19:00S 25°05' E 097°08'1 0.1 1024.6 19.0
2017-Aug-21 12:00S 25°06' E 097°08'0 0.0 1024.6 19.1
2017-Aug-21 11:00S 25°06' E 097°08'1 0.3 1024.3 19.1
2017-Aug-21 09:00S 25°07' E 097°08'2 0.3 1023.8 19.2
2017-Aug-21 02:00S 25°08' E 097°09'0 0.0 1025.6 19.1
2017-Aug-20 23:00S 25°08' E 097°09'1 0.6 1024.4 19.1
2017-Aug-20 22:00S 25°08' E 097°09'0 0.0 1024.4 19.1
2017-Aug-20 21:00S 25°08' E 097°09'1 0.5 1024.4 19.2
2017-Aug-20 20:00S 25°08' E 097°08'0 0.0 1025.2 19.2
2017-Aug-20 15:00S 25°08' E 097°08'1 0.5 1027.0 19.2
2017-Aug-20 14:00S 25°08' E 097°09'0 0.0 1026.9 19.2
2017-Aug-20 13:00S 25°08' E 097°09'0 0.0 1026.4 19.3
2017-Aug-20 11:00S 25°08' E 097°09'1 0.8 1025.9 19.3
2017-Aug-20 10:00S 25°07' E 097°10'1 0.5 1025.8 19.3
2017-Aug-20 08:00S 25°07' E 097°08'1 0.1 1026.0 19.3
2017-Aug-20 02:00S 25°08' E 097°08'1 0.5 1029.0 19.1
2017-Aug-20 01:00S 25°08' E 097°08'0 0.0 1028.6 19.1
2017-Aug-20 00:00S 25°08' E 097°08'0 0.0 1028.3 19.1
2017-Aug-19 23:00S 25°08' E 097°08'3 0.9 1027.9 19.2
2017-Aug-19 19:00S 25°05' E 097°07'0 0.0 1029.3 19.2
2017-Aug-19 18:00S 25°05' E 097°07'1 0.2 1029.9 19.2
2017-Aug-19 15:00S 25°05' E 097°06'1 0.8 1030.6 19.3
2017-Aug-19 14:00S 25°05' E 097°05'1 1.3 1030.2 19.3
2017-Aug-19 13:00S 25°04' E 097°05'1 0.6 1030.0 19.3
2017-Aug-19 12:00S 25°05' E 097°05'1 0.3 1029.5 19.3
2017-Aug-19 09:00S 25°04' E 097°04'3 1.4 1028.2 19.4
2017-Aug-19 07:00S 25°02' E 097°02'2 0.3 1028.5 19.5
2017-Aug-19 00:00S 25°02' E 096°59'2 1.6 1029.2 19.1
2017-Aug-18 23:00S 25°02' E 096°58'1 0.3 1029.0 19.1
2017-Aug-18 19:00S 25°02' E 096°56'4 1.4 1028.5 18.9
2017-Aug-18 16:00S 25°01' E 096°52'0 0.0 1029.0 18.9
2017-Aug-18 15:00S 25°01' E 096°52'0 0.0 1029.2 18.9
2017-Aug-18 14:00S 25°01' E 096°52'0 0.0 1028.9 18.9
2017-Aug-18 12:00S 25°01' E 096°52'1 1.1 1027.8 19.0
2017-Aug-18 11:00S 25°01' E 096°51'0 0.0 1027.0 19.0
2017-Aug-18 10:00S 25°01' E 096°51'1 0.8 1026.8 19.0
2017-Aug-18 09:00S 25°01' E 096°50'0 0.0 1026.5 19.0
2017-Aug-18 08:00S 25°01' E 096°50'4 0.6 1026.3 19.0
2017-Aug-18 02:00S 25°02' E 096°46'0 0.0 1027.6 19.0
2017-Aug-18 01:00S 25°02' E 096°46'1 0.2 1027.2 19.0
2017-Aug-17 22:00S 25°02' E 096°46'4 2.2 1025.2 19.0
2017-Aug-17 20:00S 25°04' E 096°41'0 0.0 1025.3 19.0
2017-Aug-17 18:00S 25°04' E 096°41'0 0.0 1025.6 19.0
2017-Aug-17 15:00S 25°04' E 096°41'2 0.9 1025.8 19.1
2017-Aug-17 13:00S 25°05' E 096°40'0 0.0 1025.5 19.1
2017-Aug-17 11:00S 25°05' E 096°40'2 1.6 1024.7 19.1
2017-Aug-17 10:00S 25°06' E 096°38'1 0.4 1024.4 19.1
2017-Aug-17 08:00S 25°07' E 096°38'3 3.2 1024.4 19.1
2017-Aug-17 07:00S 25°09' E 096°35'1 0.2 1024.6 19.1
2017-Aug-17 02:00S 25°10' E 096°35'1 0.4 1026.5 19.1
2017-Aug-17 00:00S 25°11' E 096°35'4 1.8 1025.5 19.1
2017-Aug-16 22:00S 25°14' E 096°35'0 0.0 1024.6 19.0
2017-Aug-16 21:00S 25°14' E 096°35'3 0.6 1024.8 19.0
2017-Aug-16 16:00S 25°17' E 096°34'0 0.0 1025.9 19.0
2017-Aug-16 15:00S 25°17' E 096°34'0 0.0 1026.1 19.0
2017-Aug-16 14:00S 25°17' E 096°34'2 1.9 1026.3 19.0
2017-Aug-16 13:00S 25°19' E 096°34'1 0.6 1026.3 19.0
2017-Aug-16 12:00S 25°20' E 096°34'1 0.3 1026.0 19.0
2017-Aug-16 10:00S 25°20' E 096°33'1 0.4 1025.8 19.1
2017-Aug-16 08:00S 25°20' E 096°32'2 2.4 1025.9 19.1
2017-Aug-16 07:00S 25°22' E 096°31'2 0.3 1026.1 19.1
2017-Aug-16 01:00S 25°24' E 096°31'1 0.5 1027.6 19.0
2017-Aug-16 00:00S 25°24' E 096°31'3 0.8 1026.9 19.0
2017-Aug-15 20:00S 25°27' E 096°31'3 0.8 1026.3 18.9
2017-Aug-15 16:00S 25°30' E 096°31'1 1.3 1027.9 18.9
2017-Aug-15 15:00S 25°31' E 096°31'2 2.4 1028.3 18.9
2017-Aug-15 14:00S 25°34' E 096°31'0 0.0 1028.2 18.9
2017-Aug-15 13:00S 25°34' E 096°31'1 0.8 1028.0 18.9
2017-Aug-15 12:00S 25°34' E 096°30'1 1.2 1027.7 18.9
2017-Aug-15 11:00S 25°35' E 096°30'0 0.0 1027.4 19.0
2017-Aug-15 10:00S 25°35' E 096°30'1 1.3 1027.0 19.0
2017-Aug-15 09:00S 25°37' E 096°29'0 0.0 1026.6 19.0
2017-Aug-15 08:00S 25°37' E 096°29'5 0.8 1026.2 19.0
2017-Aug-15 01:00S 25°42' E 096°29'1 0.4 1027.7 18.9
2017-Aug-14 22:00S 25°43' E 096°29'1 0.4 1025.7 18.9
2017-Aug-14 20:00S 25°44' E 096°30'5 0.9 1026.0 19.0
2017-Aug-14 15:00S 25°48' E 096°32'0 0.0 1025.5 19.0
2017-Aug-14 14:00S 25°48' E 096°32'4 1.0 1025.3 19.1
2017-Aug-14 10:00S 25°52' E 096°34'5 1.6 1023.1 19.1
2017-Aug-14 07:00S 25°56' E 096°32'0 0.0 1022.1 19.1
2017-Aug-14 04:00S 25°56' E 096°32'0 0.0 1022.8 19.1
2017-Aug-14 03:00S 25°56' E 096°32'1 0.3 1022.5 19.0
2017-Aug-14 01:00S 25°57' E 096°32'0 0.0 1021.1 18.9
2017-Aug-14 00:00S 25°57' E 096°32'1 0.2 1020.0 18.9
2017-Aug-13 21:00S 25°57' E 096°33'1 0.5 1017.9 18.9
2017-Aug-13 20:00S 25°57' E 096°34'4 0.6 1017.6 18.9
2017-Aug-13 14:00S 25°59' E 096°37'1 1.3 1015.9 19.0
2017-Aug-13 13:00S 26°01' E 096°37'0 0.0 1015.2 19.0
2017-Aug-13 12:00S 26°01' E 096°37'1 1.3 1014.5 19.0
2017-Aug-13 11:00S 26°02' E 096°38'1 0.7 1013.5 19.1
2017-Aug-13 09:00S 26°03' E 096°37'5 0.7 1012.4 19.1
2017-Aug-13 02:00S 26°08' E 096°37'1 0.3 1013.4 18.9
2017-Aug-13 00:00S 26°08' E 096°37'1 0.6 1012.2 18.9
2017-Aug-12 23:00S 26°08' E 096°37'1 1.2 1011.9 19.0
2017-Aug-12 22:00S 26°09' E 096°37'1 1.1 1011.7 19.1
2017-Aug-12 21:00S 26°09' E 096°38'0 0.0 1011.6 19.1
2017-Aug-12 20:00S 26°09' E 096°38'2 0.4 1012.0 19.1
2017-Aug-12 15:00S 26°07' E 096°39'1 0.5 1013.3 19.0
2017-Aug-12 14:00S 26°07' E 096°40'1 0.7 1013.4 19.0
2017-Aug-12 12:00S 26°08' E 096°40'1 1.2 1012.8 19.1
2017-Aug-12 11:00S 26°09' E 096°41'1 1.2 1012.6 19.2
2017-Aug-12 10:00S 26°10' E 096°43'   1012.7 19.2

Dump ship's entire track history